Time;durP1;ratioP1;P1;durP2;ratioP2;P2;SDS_P1;SDS_P2;PMS_P1;PMS_P2;Temp;Humidity;BMP_temperature;BMP_pressure;BME280_temperature;BME280_humidity;BME280_pressure;Samples;Min_cycle;Max_cycle;Signal;HPM_P1;HPM_P2
2022/12/26 00:01:22;;;;;;;5.75;3.63;;;;;;;;;;5106361;28;20173;-47
2022/12/26 00:03:49;;;;;;;10.77;3.55;;;;;;;;;;5104912;28;20126;-47
2022/12/26 00:06:25;;;;;;;5.00;3.17;;;;;;;;;;5106385;28;20415;-49
2022/12/26 00:08:52;;;;;;;5.93;3.60;;;;;;;;;;5087771;28;20031;-46
2022/12/26 00:11:18;;;;;;;5.78;3.22;;;;;;;;;;5106428;28;20467;-48
2022/12/26 00:13:44;;;;;;;6.60;3.80;;;;;;;;;;5105761;28;20032;-51
2022/12/26 00:16:15;;;;;;;5.47;3.70;;;;;;;;;;5106106;28;20031;-51
2022/12/26 00:18:42;;;;;;;6.90;3.53;;;;;;;;;;5104270;28;20031;-50
2022/12/26 00:21:10;;;;;;;7.65;3.50;;;;;;;;;;5104175;28;20525;-52
2022/12/26 00:23:36;;;;;;;8.20;3.75;;;;;;;;;;5105240;28;20027;-49
2022/12/26 00:26:04;;;;;;;8.10;3.10;;;;;;;;;;5085935;28;20468;-50
2022/12/26 00:28:30;;;;;;;5.72;3.58;;;;;;;;;;5085574;28;20043;-51
2022/12/26 00:30:55;;;;;;;6.90;3.35;;;;;;;;;;5067203;28;20043;-50
2022/12/26 00:33:21;;;;;;;7.68;3.20;;;;;;;;;;5085143;28;20490;-50
2022/12/26 00:35:47;;;;;;;7.18;4.25;;;;;;;;;;5085288;28;20032;-52
2022/12/26 00:38:15;;;;;;;7.75;4.00;;;;;;;;;;5066896;28;20149;-50
2022/12/26 00:40:42;;;;;;;4.82;3.15;;;;;;;;;;5066734;28;20459;-50
2022/12/26 00:43:11;;;;;;;9.70;3.20;;;;;;;;;;5085445;28;20089;-52
2022/12/26 00:45:37;;;;;;;4.65;3.00;;;;;;;;;;5066562;28;20070;-46
2022/12/26 00:48:04;;;;;;;6.25;2.97;;;;;;;;;;5085423;28;20036;-49
2022/12/26 00:50:30;;;;;;;4.47;3.17;;;;;;;;;;5085039;28;20067;-48
2022/12/26 00:52:57;;;;;;;5.05;3.42;;;;;;;;;;5085067;28;20059;-49
2022/12/26 00:55:23;;;;;;;4.70;3.00;;;;;;;;;;5085532;28;20032;-49
2022/12/26 00:57:49;;;;;;;5.88;3.05;;;;;;;;;;5085277;28;20026;-51
2022/12/26 01:00:15;;;;;;;6.53;3.15;;;;;;;;;;5085350;28;20104;-49
2022/12/26 01:02:41;;;;;;;4.93;3.22;;;;;;;;;;5089004;28;20028;-50
2022/12/26 06:10:59;;;;;;;3.35;2.15;;;;;;;;;;5101244;28;20036;-45
2022/12/26 06:13:26;;;;;;;5.78;3.17;;;;;;;;;;5109904;28;20055;-47
2022/12/26 06:15:53;;;;;;;3.92;2.47;;;;;;;;;;5110247;28;20022;-46
2022/12/26 06:18:19;;;;;;;7.00;4.10;;;;;;;;;;5109849;28;20024;-50
2022/12/26 06:20:45;;;;;;;4.70;2.28;;;;;;;;;;5110092;28;20080;-47
2022/12/26 06:23:12;;;;;;;5.60;2.45;;;;;;;;;;5109023;28;20046;-47
2022/12/26 06:25:38;;;;;;;3.75;1.92;;;;;;;;;;5108548;28;20034;-50
2022/12/26 06:28:04;;;;;;;3.42;2.38;;;;;;;;;;5109767;28;20027;-47
2022/12/26 06:30:30;;;;;;;4.38;2.40;;;;;;;;;;5109477;28;20033;-47
2022/12/26 06:32:56;;;;;;;3.05;2.38;;;;;;;;;;5109560;28;20107;-47
2022/12/26 06:35:23;;;;;;;4.38;1.88;;;;;;;;;;5106374;28;20701;-46
2022/12/26 06:37:50;;;;;;;5.25;2.20;;;;;;;;;;5089322;28;20252;-46
2022/12/26 06:40:16;;;;;;;3.50;2.50;;;;;;;;;;5088952;28;20499;-46
2022/12/26 06:42:42;;;;;;;5.15;2.28;;;;;;;;;;5089427;28;20157;-49
2022/12/26 06:45:08;;;;;;;3.38;2.40;;;;;;;;;;5088994;28;20076;-48
2022/12/26 06:47:34;;;;;;;3.45;2.13;;;;;;;;;;5088952;28;20055;-47
2022/12/26 06:50:01;;;;;;;4.13;2.28;;;;;;;;;;5089906;28;20498;-48
2022/12/26 06:52:27;;;;;;;5.25;2.65;;;;;;;;;;5090826;28;20415;-46
2022/12/26 06:54:53;;;;;;;3.45;2.28;;;;;;;;;;5107991;28;20068;-50
2022/12/26 06:57:19;;;;;;;6.00;2.22;;;;;;;;;;5109442;28;20028;-50
2022/12/26 06:59:45;;;;;;;4.38;2.33;;;;;;;;;;5107765;28;20096;-47
2022/12/26 07:02:11;;;;;;;6.57;2.65;;;;;;;;;;5108482;28;20456;-47
2022/12/26 07:04:37;;;;;;;4.55;2.50;;;;;;;;;;5108920;28;20042;-45
2022/12/26 07:07:04;;;;;;;3.67;2.15;;;;;;;;;;5108004;28;20059;-46
2022/12/26 07:09:30;;;;;;;4.28;2.13;;;;;;;;;;5090053;28;20034;-46
2022/12/26 07:11:56;;;;;;;3.95;2.20;;;;;;;;;;5108869;28;20039;-45
2022/12/26 07:14:22;;;;;;;4.40;2.20;;;;;;;;;;5108722;28;20610;-46
2022/12/26 07:16:48;;;;;;;6.43;2.70;;;;;;;;;;5109035;28;20061;-48
2022/12/26 07:19:15;;;;;;;4.63;2.40;;;;;;;;;;5109104;28;20022;-48
2022/12/26 07:21:42;;;;;;;5.78;2.70;;;;;;;;;;5109206;28;20032;-50
2022/12/26 07:24:21;;;;;;;4.75;2.65;;;;;;;;;;5107789;28;20024;-50
2022/12/26 07:26:48;;;;;;;4.22;2.42;;;;;;;;;;5108852;28;20277;-50
2022/12/26 07:29:14;;;;;;;5.00;2.20;;;;;;;;;;5108581;28;20024;-49
2022/12/26 07:31:41;;;;;;;4.55;2.60;;;;;;;;;;5108742;28;20031;-46
2022/12/26 07:34:09;;;;;;;6.20;2.67;;;;;;;;;;5089932;28;20131;-49
2022/12/26 07:36:35;;;;;;;6.32;2.70;;;;;;;;;;5087775;28;20028;-47
2022/12/26 07:39:02;;;;;;;4.05;2.45;;;;;;;;;;5087866;28;20029;-51
2022/12/26 07:44:14;;;;;;;4.25;2.00;;;;;;;;;;5108547;28;20068;-46
2022/12/26 07:46:40;;;;;;;6.70;2.45;;;;;;;;;;5107513;28;20413;-46
2022/12/26 07:49:06;;;;;;;5.75;2.50;;;;;;;;;;5108038;28;20028;-47
2022/12/26 07:51:33;;;;;;;5.75;2.70;;;;;;;;;;5107639;28;20072;-49
2022/12/26 07:53:59;;;;;;;4.95;2.70;;;;;;;;;;5107015;28;20059;-49
2022/12/26 07:56:26;;;;;;;5.18;2.70;;;;;;;;;;5107907;28;20062;-47
2022/12/26 07:58:52;;;;;;;7.22;2.30;;;;;;;;;;5108154;28;20030;-46
2022/12/26 08:01:18;;;;;;;5.78;2.58;;;;;;;;;;5105331;28;20027;-48
2022/12/26 08:03:46;;;;;;;6.30;2.60;;;;;;;;;;5122994;27;20030;-46
2022/12/26 08:06:13;;;;;;;3.50;2.40;;;;;;;;;;5129905;27;20049;-47
2022/12/26 08:08:39;;;;;;;4.60;2.40;;;;;;;;;;5116405;27;20027;-50
2022/12/26 08:11:06;;;;;;;4.90;2.13;;;;;;;;;;5108397;28;20642;-49
2022/12/26 08:13:32;;;;;;;5.95;2.15;;;;;;;;;;5108783;28;20058;-45
2022/12/26 08:15:59;;;;;;;3.65;2.30;;;;;;;;;;5107654;28;20470;-50
2022/12/26 08:18:25;;;;;;;5.88;2.53;;;;;;;;;;5109028;28;20015;-46
2022/12/26 08:20:51;;;;;;;5.60;2.33;;;;;;;;;;5108809;28;20047;-48
2022/12/26 08:23:17;;;;;;;6.63;2.42;;;;;;;;;;5107305;28;20032;-48
2022/12/26 08:25:43;;;;;;;6.55;2.97;;;;;;;;;;5119514;27;20034;-46
2022/12/26 08:28:09;;;;;;;4.68;2.80;;;;;;;;;;5106364;27;20085;-48
2022/12/26 08:30:38;;;;;;;3.40;2.05;;;;;;;;;;5105964;28;20255;-48
2022/12/26 08:33:04;;;;;;;3.67;2.15;;;;;;;;;;5106996;28;20019;-50
2022/12/26 08:35:30;;;;;;;5.93;2.20;;;;;;;;;;5107268;28;20360;-49
2022/12/26 08:37:56;;;;;;;5.97;2.55;;;;;;;;;;5107316;28;20107;-48
2022/12/26 08:40:22;;;;;;;6.93;2.60;;;;;;;;;;5100367;28;20039;-51
2022/12/26 08:42:48;;;;;;;5.05;2.33;;;;;;;;;;5106808;28;20050;-46
2022/12/26 08:45:16;;;;;;;4.88;2.33;;;;;;;;;;5107407;28;20035;-50
2022/12/26 08:47:41;;;;;;;3.70;2.00;;;;;;;;;;5107590;28;20027;-47
2022/12/26 08:50:08;;;;;;;3.92;2.05;;;;;;;;;;5105638;28;20152;-48
2022/12/26 08:52:34;;;;;;;7.28;2.38;;;;;;;;;;5105750;28;20031;-46
2022/12/26 08:55:01;;;;;;;5.85;2.50;;;;;;;;;;5107012;28;20024;-47
2022/12/26 08:57:27;;;;;;;5.82;2.70;;;;;;;;;;5106097;28;20406;-50
2022/12/26 08:59:53;;;;;;;4.53;2.60;;;;;;;;;;5102819;28;20027;-47
2022/12/26 09:02:19;;;;;;;3.97;2.00;;;;;;;;;;5107700;28;20024;-48
2022/12/26 09:04:45;;;;;;;4.65;2.33;;;;;;;;;;5105050;28;20413;-48
2022/12/26 09:07:11;;;;;;;6.13;2.53;;;;;;;;;;5106930;28;20514;-49
2022/12/26 09:09:37;;;;;;;6.32;2.92;;;;;;;;;;5107138;28;20530;-45
2022/12/26 09:12:03;;;;;;;4.53;2.42;;;;;;;;;;5106322;28;20027;-50
2022/12/26 09:14:29;;;;;;;4.82;2.15;;;;;;;;;;5106838;28;20028;-48
2022/12/26 09:16:55;;;;;;;5.15;2.50;;;;;;;;;;5104450;28;20024;-49
2022/12/26 09:19:22;;;;;;;6.50;2.53;;;;;;;;;;5086519;28;20032;-47
2022/12/26 09:22:49;;;;;;;4.63;2.13;;;;;;;;;;5087400;28;20055;-48
2022/12/26 09:24:34;;;;;;;5.47;2.65;;;;;;;;;;5090077;28;20499;-46
2022/12/26 09:27:00;;;;;;;3.70;2.50;;;;;;;;;;5090123;28;20073;-48
2022/12/26 09:29:26;;;;;;;4.53;2.15;;;;;;;;;;5090270;28;20528;-49
2022/12/26 09:31:55;;;;;;;5.28;2.08;;;;;;;;;;5091208;28;20059;-48
2022/12/26 09:34:21;;;;;;;4.28;2.30;;;;;;;;;;5090309;28;20450;-49
2022/12/26 09:36:47;;;;;;;3.53;2.10;;;;;;;;;;5098110;28;20031;-49
2022/12/26 09:39:12;;;;;;;4.85;2.17;;;;;;;;;;5111133;28;20027;-49
2022/12/26 09:41:41;;;;;;;4.93;2.53;;;;;;;;;;5110348;28;20019;-48
2022/12/26 09:44:13;;;;;;;4.18;2.60;;;;;;;;;;5110422;28;20100;-47
2022/12/26 09:46:43;;;;;;;4.63;2.63;;;;;;;;;;5109273;28;20461;-46
2022/12/26 09:49:12;;;;;;;6.13;2.28;;;;;;;;;;5105729;28;20026;-49
2022/12/26 09:51:39;;;;;;;4.28;2.10;;;;;;;;;;5091122;28;20016;-49
2022/12/26 09:54:07;;;;;;;3.03;1.90;;;;;;;;;;5091340;28;20111;-48
2022/12/26 09:56:36;;;;;;;6.75;2.30;;;;;;;;;;5107659;28;20027;-45
2022/12/26 09:59:07;;;;;;;5.20;2.00;;;;;;;;;;5108957;28;20077;-46
2022/12/26 10:01:34;;;;;;;4.75;2.30;;;;;;;;;;5105731;28;20069;-45
2022/12/26 10:04:04;;;;;;;4.13;1.85;;;;;;;;;;5111477;28;20028;-49
2022/12/26 10:06:33;;;;;;;6.55;2.28;;;;;;;;;;5103668;28;20491;-48
2022/12/26 10:08:59;;;;;;;4.70;2.22;;;;;;;;;;5111406;28;20035;-49
2022/12/26 10:11:45;;;;;;;3.88;1.88;;;;;;;;;;5107192;28;20049;-48
2022/12/26 10:14:15;;;;;;;2.78;1.88;;;;;;;;;;5099107;28;20106;-47
2022/12/26 10:16:54;;;;;;;4.97;2.05;;;;;;;;;;5116829;27;20031;-47
2022/12/26 10:19:20;;;;;;;5.40;2.00;;;;;;;;;;5110854;28;20043;-48
2022/12/26 10:21:57;;;;;;;7.35;3.85;;;;;;;;;;5107742;28;20047;-49
2022/12/26 10:24:25;;;;;;;6.53;3.25;;;;;;;;;;5093513;28;20388;-48
2022/12/26 10:26:55;;;;;;;6.20;3.22;;;;;;;;;;5088986;28;20020;-49
2022/12/26 10:29:26;;;;;;;5.78;2.83;;;;;;;;;;5088822;28;20028;-49
2022/12/26 10:32:18;;;;;;;5.05;2.80;;;;;;;;;;5088676;28;20062;-48
2022/12/26 10:34:46;;;;;;;3.78;2.35;;;;;;;;;;5084406;28;20043;-49
2022/12/26 10:37:35;;;;;;;4.72;2.40;;;;;;;;;;5088896;28;20052;-47
2022/12/26 10:40:19;;;;;;;4.00;2.13;;;;;;;;;;5088684;28;20031;-49
2022/12/26 10:42:49;;;;;;;4.57;2.45;;;;;;;;;;5088677;28;20020;-48
2022/12/26 10:45:17;;;;;;;3.45;2.30;;;;;;;;;;5088794;28;20028;-47
2022/12/26 10:47:50;;;;;;;5.55;2.50;;;;;;;;;;5089035;28;20031;-48
2022/12/26 10:50:17;;;;;;;4.18;2.20;;;;;;;;;;5088218;28;20020;-46
2022/12/26 10:52:44;;;;;;;4.68;2.47;;;;;;;;;;5089093;28;20054;-47
2022/12/26 10:55:14;;;;;;;6.72;3.42;;;;;;;;;;5088933;28;20024;-47
2022/12/26 10:57:42;;;;;;;5.82;2.22;;;;;;;;;;5088579;28;20024;-48
2022/12/26 11:00:21;;;;;;;4.68;2.08;;;;;;;;;;5088182;28;20491;-46
2022/12/26 11:03:06;;;;;;;4.90;3.00;;;;;;;;;;5088347;28;20028;-47
2022/12/26 11:05:33;;;;;;;5.28;3.08;;;;;;;;;;5088341;28;20104;-46
2022/12/26 11:08:16;;;;;;;4.50;2.33;;;;;;;;;;5088131;28;20052;-45
2022/12/26 11:10:46;;;;;;;7.88;3.22;;;;;;;;;;5088092;28;20358;-47
2022/12/26 11:13:18;;;;;;;5.28;3.10;;;;;;;;;;5088389;28;20440;-46
2022/12/26 11:15:52;;;;;;;6.45;2.70;;;;;;;;;;5088220;28;20024;-48
2022/12/26 11:18:38;;;;;;;4.38;2.45;;;;;;;;;;5088376;28;20426;-49
2022/12/26 11:21:19;;;;;;;5.03;2.45;;;;;;;;;;5087911;28;20043;-48
2022/12/26 11:23:47;;;;;;;5.80;2.42;;;;;;;;;;5096892;28;20031;-46
2022/12/26 11:26:23;;;;;;;4.90;2.60;;;;;;;;;;5106790;28;20042;-49
2022/12/26 11:29:08;;;;;;;5.28;3.10;;;;;;;;;;5087974;28;20030;-48
2022/12/26 11:31:35;;;;;;;2.85;2.00;;;;;;;;;;5093561;28;20390;-49
2022/12/26 11:34:06;;;;;;;3.55;2.20;;;;;;;;;;5088265;28;20047;-47
2022/12/26 11:36:33;;;;;;;4.45;2.13;;;;;;;;;;5090552;28;20075;-48
2022/12/26 11:39:03;;;;;;;4.68;2.55;;;;;;;;;;5100337;28;20024;-48
2022/12/26 11:41:30;;;;;;;3.88;2.28;;;;;;;;;;5106404;28;20019;-50
2022/12/26 11:44:02;;;;;;;6.35;2.38;;;;;;;;;;5105666;28;20512;-47
2022/12/26 11:46:38;;;;;;;3.45;1.88;;;;;;;;;;5106384;28;20414;-52
2022/12/26 11:49:04;;;;;;;4.60;2.50;;;;;;;;;;5106881;28;20073;-48
2022/12/26 11:51:34;;;;;;;3.75;2.22;;;;;;;;;;5106259;28;20059;-49
2022/12/26 11:54:12;;;;;;;5.20;2.45;;;;;;;;;;5099536;28;20024;-48
2022/12/26 11:56:39;;;;;;;5.85;2.42;;;;;;;;;;5086258;28;20024;-47
2022/12/26 11:59:15;;;;;;;6.00;2.20;;;;;;;;;;5086110;28;20031;-50
2022/12/26 12:01:41;;;;;;;2.92;2.20;;;;;;;;;;5086751;28;20032;-47
2022/12/26 12:04:08;;;;;;;2.95;2.28;;;;;;;;;;5086111;28;20024;-49
2022/12/26 12:06:48;;;;;;;6.03;2.40;;;;;;;;;;5086193;28;20027;-49
2022/12/26 12:09:33;;;;;;;4.25;2.40;;;;;;;;;;5086476;28;20039;-48
2022/12/26 12:12:11;;;;;;;3.95;1.83;;;;;;;;;;5085469;28;20032;-48
2022/12/26 12:14:37;;;;;;;1.98;1.40;;;;;;;;;;5085862;28;20371;-50
2022/12/26 12:17:03;;;;;;;4.40;1.85;;;;;;;;;;5085914;28;20502;-49
2022/12/26 12:19:42;;;;;;;3.45;1.55;;;;;;;;;;5094958;28;20152;-48
2022/12/26 12:22:08;;;;;;;3.08;1.70;;;;;;;;;;5095604;28;20039;-47
2022/12/26 12:24:34;;;;;;;2.83;1.88;;;;;;;;;;5104593;28;20024;-48
2022/12/26 12:27:00;;;;;;;2.42;1.38;;;;;;;;;;5096014;28;20035;-47
2022/12/26 12:29:44;;;;;;;4.50;2.40;;;;;;;;;;5085504;28;20020;-48
2022/12/26 12:32:10;;;;;;;;;;;;;;;;;;5086099;28;20101;-49
2022/12/26 12:34:52;;;;;;;4.75;2.63;;;;;;;;;;5086174;28;19904;-48
2022/12/26 12:37:36;;;;;;;4.45;2.13;;;;;;;;;;5085491;28;20396;-48
2022/12/26 12:40:24;;;;;;;3.67;2.03;;;;;;;;;;5085277;28;20028;-49
2022/12/26 12:42:52;;;;;;;3.20;2.08;;;;;;;;;;5103681;28;20506;-49
2022/12/26 12:45:27;;;;;;;3.55;2.13;;;;;;;;;;5105692;28;20031;-51
2022/12/26 12:47:53;;;;;;;;;;;;;;;;;;5106213;28;20533;-50
2022/12/26 12:50:28;;;;;;;2.50;1.98;;;;;;;;;;5096604;28;19937;-48
2022/12/26 12:52:57;;;;;;;2.88;2.00;;;;;;;;;;5085772;28;20031;-49
2022/12/26 12:55:26;;;;;;;3.03;2.05;;;;;;;;;;5084683;28;20106;-50
2022/12/26 12:57:54;;;;;;;6.40;2.28;;;;;;;;;;5084988;28;20104;-47
2022/12/26 13:00:22;;;;;;;3.85;2.33;;;;;;;;;;5085106;28;20044;-51
2022/12/26 13:03:09;;;;;;;5.60;2.60;;;;;;;;;;5085365;28;20405;-49
2022/12/26 13:05:35;;;;;;;5.90;2.70;;;;;;;;;;5096754;28;20177;-47
2022/12/26 13:08:24;;;;;;;5.35;2.78;;;;;;;;;;5105315;28;20103;-48
2022/12/26 13:10:58;;;;;;;3.78;2.20;;;;;;;;;;5099959;28;20046;-51
2022/12/26 13:13:27;;;;;;;7.22;2.55;;;;;;;;;;5100911;28;20027;-49
2022/12/26 13:15:56;;;;;;;4.90;2.38;;;;;;;;;;5105254;28;20028;-49
2022/12/26 13:18:24;;;;;;;3.85;2.60;;;;;;;;;;5105275;28;20133;-47
2022/12/26 13:20:53;;;;;;;3.20;2.15;;;;;;;;;;5106569;28;20509;-46
2022/12/26 13:26:16;;;;;;;5.38;2.35;;;;;;;;;;5105131;28;20100;-47
2022/12/26 13:29:09;;;;;;;4.05;2.42;;;;;;;;;;5096021;28;20032;-48
2022/12/26 13:31:35;;;;;;;3.28;2.38;;;;;;;;;;5081862;28;20463;-45
2022/12/26 13:34:04;;;;;;;4.35;1.77;;;;;;;;;;5084977;28;20043;-48
2022/12/26 13:36:49;;;;;;;2.60;1.85;;;;;;;;;;5084713;28;20415;-46
2022/12/26 13:39:18;;;;;;;2.90;1.83;;;;;;;;;;5084374;28;20036;-49
2022/12/26 13:44:36;;;;;;;3.08;1.85;;;;;;;;;;5085185;28;20039;-45
2022/12/26 13:47:02;;;;;;;2.25;1.58;;;;;;;;;;5084889;28;20507;-47
2022/12/26 13:49:38;;;;;;;2.60;1.60;;;;;;;;;;5085198;28;20079;-49
2022/12/26 13:52:10;;;;;;;2.63;1.90;;;;;;;;;;5084867;28;20411;-46
2022/12/26 13:54:37;;;;;;;3.17;1.80;;;;;;;;;;5084336;28;20016;-48
2022/12/26 13:57:14;;;;;;;3.35;1.88;;;;;;;;;;5085448;28;20116;-45
2022/12/26 14:00:02;;;;;;;2.50;1.70;;;;;;;;;;5105116;28;20449;-48
2022/12/26 14:02:44;;;;;;;3.15;1.83;;;;;;;;;;5104869;28;20454;-46
2022/12/26 14:05:32;;;;;;;3.25;2.03;;;;;;;;;;5105055;28;20023;-47
2022/12/26 14:08:03;;;;;;;4.68;2.63;;;;;;;;;;5100984;28;20031;-47
2022/12/26 14:10:39;;;;;;;4.07;1.90;;;;;;;;;;5087660;28;20027;-47
2022/12/26 14:13:32;;;;;;;4.53;1.83;;;;;;;;;;5098312;28;20730;-48
2022/12/26 14:16:03;;;;;;;5.45;1.77;;;;;;;;;;5088614;28;20020;-45
2022/12/26 14:18:41;;;;;;;4.03;2.13;;;;;;;;;;5087874;28;20081;-48
2022/12/26 14:21:25;;;;;;;2.25;1.42;;;;;;;;;;5088019;28;20107;-46
2022/12/26 14:23:57;;;;;;;1.73;1.20;;;;;;;;;;5087902;28;20032;-45
2022/12/26 14:26:32;;;;;;;2.70;1.55;;;;;;;;;;5088023;28;20241;-48
2022/12/26 14:29:11;;;;;;;1.95;1.33;;;;;;;;;;5108108;28;20424;-45
2022/12/26 14:31:37;;;;;;;1.75;1.40;;;;;;;;;;5108521;28;20024;-47
2022/12/26 14:34:21;;;;;;;2.35;1.70;;;;;;;;;;5108178;28;20081;-47
2022/12/26 14:37:06;;;;;;;1.73;1.55;;;;;;;;;;5108329;28;20034;-44
2022/12/26 14:39:32;;;;;;;2.08;1.58;;;;;;;;;;5107472;28;20031;-48
2022/12/26 14:44:58;;;;;;;2.25;1.70;;;;;;;;;;5108777;28;20050;-47
2022/12/26 14:47:54;;;;;;;2.25;1.70;;;;;;;;;;5109488;28;20437;-45
2022/12/26 14:50:32;;;;;;;2.75;2.08;;;;;;;;;;5087521;28;20051;-44
2022/12/26 14:53:16;;;;;;;2.40;1.70;;;;;;;;;;5109565;28;20027;-46
2022/12/26 14:55:42;;;;;;;;;;;;;;;;;;5110072;28;20035;-49
2022/12/26 14:58:20;;;;;;;3.00;2.17;;;;;;;;;;5107875;28;19912;-48
2022/12/26 15:00:47;;;;;;;2.92;2.17;;;;;;;;;;5109438;28;20103;-48
2022/12/26 15:03:31;;;;;;;3.63;2.20;;;;;;;;;;5109470;28;20375;-46
2022/12/26 15:06:18;;;;;;;3.63;2.45;;;;;;;;;;5109147;28;20043;-48
2022/12/26 15:09:02;;;;;;;4.55;2.13;;;;;;;;;;5056948;28;20057;-49
2022/12/26 15:11:28;;;;;;;;;;;;;;;;;;5089683;28;20067;-45
2022/12/26 15:13:55;;;;;;;3.42;2.42;;;;;;;;;;5096644;28;19951;-49
2022/12/26 15:16:24;;;;;;;2.33;2.00;;;;;;;;;;5107000;28;20596;-48
2022/12/26 15:19:09;;;;;;;3.65;2.38;;;;;;;;;;5106630;28;20114;-48
2022/12/26 15:21:41;;;;;;;3.45;2.65;;;;;;;;;;5085838;28;20681;-48
2022/12/26 15:24:26;;;;;;;2.95;2.45;;;;;;;;;;5106875;28;20118;-47
2022/12/26 15:27:05;;;;;;;3.30;2.40;;;;;;;;;;5102047;28;20344;-48
2022/12/26 15:29:46;;;;;;;3.53;2.45;;;;;;;;;;5107119;28;20589;-48
2022/12/26 15:32:20;;;;;;;3.30;2.72;;;;;;;;;;5106958;28;20032;-48
2022/12/26 15:34:50;;;;;;;3.17;2.72;;;;;;;;;;5107310;28;20081;-47
2022/12/26 15:37:20;;;;;;;3.45;2.63;;;;;;;;;;5106646;28;20028;-47
2022/12/26 15:39:49;;;;;;;3.45;2.65;;;;;;;;;;5106418;28;20688;-45
2022/12/26 15:42:15;;;;;;;3.08;2.60;;;;;;;;;;5105422;28;20154;-45
2022/12/26 15:44:48;;;;;;;4.10;2.70;;;;;;;;;;5105371;28;20030;-48
2022/12/26 15:47:23;;;;;;;4.43;2.92;;;;;;;;;;5105606;28;20031;-47
2022/12/26 15:50:01;;;;;;;5.32;3.20;;;;;;;;;;5105902;28;20302;-47
2022/12/26 15:52:27;;;;;;;3.17;2.47;;;;;;;;;;5104484;28;20037;-47
2022/12/26 15:54:53;;;;;;;4.53;2.65;;;;;;;;;;5102010;28;20028;-47
2022/12/26 15:57:25;;;;;;;3.00;2.40;;;;;;;;;;5106621;28;20028;-47
2022/12/26 16:00:11;;;;;;;3.47;2.22;;;;;;;;;;5105164;28;20042;-47
2022/12/26 16:02:57;;;;;;;4.57;2.80;;;;;;;;;;5101847;28;20088;-47
2022/12/26 16:05:30;;;;;;;3.72;2.75;;;;;;;;;;5107466;28;20038;-48
2022/12/26 16:08:14;;;;;;;3.00;2.20;;;;;;;;;;5121638;27;20062;-45
2022/12/26 16:10:40;;;;;;;4.25;2.55;;;;;;;;;;5101645;27;20038;-45
2022/12/26 16:13:19;;;;;;;3.13;2.17;;;;;;;;;;5087166;28;20042;-48
2022/12/26 16:15:50;;;;;;;3.67;2.40;;;;;;;;;;5107118;28;20028;-47
2022/12/26 16:18:21;;;;;;;3.83;2.50;;;;;;;;;;5108679;28;20027;-47
2022/12/26 16:23:36;;;;;;;4.75;3.22;;;;;;;;;;5102181;28;20062;-48
2022/12/26 16:26:02;;;;;;;5.38;3.45;;;;;;;;;;5107258;28;20232;-47
2022/12/26 16:28:31;;;;;;;7.13;4.25;;;;;;;;;;5103321;28;20039;-47
2022/12/26 16:30:58;;;;;;;5.60;3.53;;;;;;;;;;5105461;28;20177;-46
2022/12/26 16:33:25;;;;;;;6.88;4.53;;;;;;;;;;5090880;28;20032;-48
2022/12/26 16:35:51;;;;;;;9.70;5.75;;;;;;;;;;5087004;28;20066;-46
2022/12/26 16:38:19;;;;;;;8.02;4.93;;;;;;;;;;5091798;28;20039;-44
2022/12/26 16:40:50;;;;;;;7.68;4.68;;;;;;;;;;5068859;28;20142;-45
2022/12/26 16:43:19;;;;;;;8.18;4.80;;;;;;;;;;5095322;28;20108;-48
2022/12/26 16:45:47;;;;;;;6.85;4.43;;;;;;;;;;5094866;28;20050;-46
2022/12/26 16:48:18;;;;;;;6.75;3.83;;;;;;;;;;5106012;28;20130;-45
2022/12/26 16:50:48;;;;;;;5.32;3.75;;;;;;;;;;5106786;28;20031;-48
2022/12/26 16:53:19;;;;;;;5.03;3.45;;;;;;;;;;5106816;28;20129;-47
2022/12/26 16:55:47;;;;;;;6.40;4.18;;;;;;;;;;5106752;28;20172;-46
2022/12/26 16:58:15;;;;;;;7.72;4.50;;;;;;;;;;5107134;28;20027;-45
2022/12/26 17:00:46;;;;;;;6.43;4.13;;;;;;;;;;5105841;28;20114;-48
2022/12/26 17:03:19;;;;;;;6.57;4.05;;;;;;;;;;5088356;28;20027;-47
2022/12/26 17:05:46;;;;;;;7.35;4.30;;;;;;;;;;5106804;28;20479;-49
2022/12/26 17:08:14;;;;;;;5.75;3.78;;;;;;;;;;5106777;28;20120;-47
2022/12/26 17:10:45;;;;;;;6.47;4.38;;;;;;;;;;5092829;28;20027;-47
2022/12/26 17:13:19;;;;;;;6.93;4.60;;;;;;;;;;5093977;28;20035;-46
2022/12/26 17:15:51;;;;;;;7.00;5.30;;;;;;;;;;5087150;28;20020;-47
2022/12/26 17:18:29;;;;;;;7.50;5.40;;;;;;;;;;5106508;28;20024;-48
2022/12/26 17:20:55;;;;;;;9.60;5.70;;;;;;;;;;5106757;28;20455;-45
2022/12/26 17:23:35;;;;;;;9.43;6.53;;;;;;;;;;5106592;28;20042;-45
2022/12/26 17:26:16;;;;;;;10.07;6.55;;;;;;;;;;5104973;28;20031;-47
2022/12/26 17:28:42;;;;;;;8.65;5.80;;;;;;;;;;5092989;28;20032;-45
2022/12/26 17:31:31;;;;;;;10.35;6.03;;;;;;;;;;5090447;28;20469;-46
2022/12/26 17:34:00;;;;;;;10.27;5.90;;;;;;;;;;5106674;28;20078;-49
2022/12/26 17:36:30;;;;;;;9.38;5.93;;;;;;;;;;5105083;28;20036;-46
2022/12/26 17:38:56;;;;;;;9.25;5.75;;;;;;;;;;5104334;28;20110;-48
2022/12/26 17:41:22;;;;;;;8.38;5.25;;;;;;;;;;5105893;28;20433;-46
2022/12/26 17:43:49;;;;;;;8.38;5.10;;;;;;;;;;5098715;28;20032;-45
2022/12/26 17:46:16;;;;;;;8.85;5.78;;;;;;;;;;5106113;27;20054;-47
2022/12/26 17:48:42;;;;;;;7.07;5.32;;;;;;;;;;5110423;28;20039;-48
2022/12/26 17:51:11;;;;;;;6.05;4.47;;;;;;;;;;5101742;28;20038;-45
2022/12/26 17:53:39;;;;;;;8.38;5.03;;;;;;;;;;5091385;28;20028;-45
2022/12/26 17:56:07;;;;;;;8.10;5.38;;;;;;;;;;5092956;28;20611;-46
2022/12/26 17:58:34;;;;;;;8.55;5.45;;;;;;;;;;5088538;28;20023;-45
2022/12/26 18:01:00;;;;;;;8.50;5.38;;;;;;;;;;5107748;28;20874;-49
2022/12/26 18:03:27;;;;;;;8.32;5.72;;;;;;;;;;5106065;28;20042;-46
2022/12/26 18:05:55;;;;;;;9.63;6.45;;;;;;;;;;5107167;28;20031;-48
2022/12/26 18:08:26;;;;;;;8.75;5.43;;;;;;;;;;5105995;28;20035;-45
2022/12/26 18:10:53;;;;;;;9.10;5.07;;;;;;;;;;5087059;28;20023;-45
2022/12/26 18:13:19;;;;;;;8.43;5.75;;;;;;;;;;5104689;28;20023;-45
2022/12/26 18:15:46;;;;;;;6.75;4.72;;;;;;;;;;5112684;27;20387;-45
2022/12/26 18:18:26;;;;;;;6.47;4.80;;;;;;;;;;5127539;27;20107;-46
2022/12/26 18:20:52;;;;;;;6.10;4.38;;;;;;;;;;5109657;28;20442;-46
2022/12/26 18:23:20;;;;;;;5.70;4.55;;;;;;;;;;5105622;28;20296;-45
2022/12/26 18:25:46;;;;;;;5.93;4.22;;;;;;;;;;5107237;28;20455;-49
2022/12/26 18:28:12;;;;;;;6.72;4.70;;;;;;;;;;5109804;28;20035;-47
2022/12/26 18:30:40;;;;;;;6.53;4.45;;;;;;;;;;5109016;28;20498;-46
2022/12/26 18:33:08;;;;;;;8.30;4.55;;;;;;;;;;5091153;28;20553;-45
2022/12/26 18:35:34;;;;;;;6.15;4.10;;;;;;;;;;5109109;28;20393;-47
2022/12/26 18:38:02;;;;;;;6.68;4.32;;;;;;;;;;5105792;28;20027;-46
2022/12/26 18:40:34;;;;;;;6.22;4.50;;;;;;;;;;5107071;28;20027;-47
2022/12/26 18:43:01;;;;;;;7.55;4.82;;;;;;;;;;5096195;28;20043;-47
2022/12/26 18:45:29;;;;;;;8.55;5.55;;;;;;;;;;5080240;28;20545;-46
2022/12/26 18:47:56;;;;;;;7.90;4.90;;;;;;;;;;5108655;28;20032;-48
2022/12/26 18:50:23;;;;;;;7.20;5.18;;;;;;;;;;5107024;28;20015;-45
2022/12/26 18:52:49;;;;;;;7.70;5.43;;;;;;;;;;5108089;28;20031;-47
2022/12/26 18:55:15;;;;;;;7.32;4.93;;;;;;;;;;5106060;28;20028;-46
2022/12/26 18:57:41;;;;;;;6.53;4.35;;;;;;;;;;5108871;28;20498;-47
2022/12/26 19:00:07;;;;;;;5.78;4.22;;;;;;;;;;5112884;27;20084;-48
2022/12/26 19:02:33;;;;;;;7.15;4.25;;;;;;;;;;5090552;28;20130;-46
2022/12/26 19:04:59;;;;;;;6.45;4.55;;;;;;;;;;5096612;28;20023;-49
2022/12/26 19:07:26;;;;;;;6.78;4.30;;;;;;;;;;5106449;28;20072;-47
2022/12/26 19:09:54;;;;;;;6.50;4.57;;;;;;;;;;5108696;28;20035;-47
2022/12/26 19:12:21;;;;;;;8.40;4.72;;;;;;;;;;5089366;28;20414;-47
2022/12/26 19:14:48;;;;;;;7.32;4.50;;;;;;;;;;5082831;28;20070;-48
2022/12/26 19:17:14;;;;;;;6.25;4.25;;;;;;;;;;5107233;28;20019;-47
2022/12/26 19:19:40;;;;;;;7.45;5.30;;;;;;;;;;5105717;28;20431;-48
2022/12/26 19:22:07;;;;;;;8.25;4.65;;;;;;;;;;5105665;28;20055;-47
2022/12/26 19:24:33;;;;;;;9.15;5.35;;;;;;;;;;5104792;28;20023;-48
2022/12/26 19:26:59;;;;;;;13.65;7.38;;;;;;;;;;5107183;28;20368;-48
2022/12/26 19:29:25;;;;;;;13.63;8.07;;;;;;;;;;5107125;28;20026;-49
2022/12/26 19:31:51;;;;;;;14.43;8.73;;;;;;;;;;5089044;28;20779;-47
2022/12/26 19:34:17;;;;;;;12.93;8.32;;;;;;;;;;5107974;28;20103;-47
2022/12/26 19:36:43;;;;;;;11.00;7.25;;;;;;;;;;5089812;28;20027;-45
2022/12/26 19:39:09;;;;;;;9.48;6.10;;;;;;;;;;5089542;28;20057;-50
2022/12/26 19:41:35;;;;;;;7.72;5.90;;;;;;;;;;5107806;28;20031;-47
2022/12/26 19:44:01;;;;;;;8.70;5.78;;;;;;;;;;5108660;28;20053;-47
2022/12/26 19:46:28;;;;;;;9.70;5.80;;;;;;;;;;5107423;28;20036;-46
2022/12/26 19:48:54;;;;;;;8.23;5.75;;;;;;;;;;5107799;28;20043;-48
2022/12/26 19:51:21;;;;;;;7.78;5.25;;;;;;;;;;5089744;28;20024;-49
2022/12/26 19:53:47;;;;;;;6.68;4.65;;;;;;;;;;5108110;28;20081;-47
2022/12/26 19:56:18;;;;;;;7.00;4.97;;;;;;;;;;5090098;28;20495;-48
2022/12/26 19:58:46;;;;;;;6.82;4.82;;;;;;;;;;5107775;28;20066;-50
2022/12/26 20:01:14;;;;;;;10.00;4.57;;;;;;;;;;5107406;28;20031;-48
2022/12/26 20:03:40;;;;;;;6.28;4.43;;;;;;;;;;5107437;27;20122;-46
2022/12/26 20:06:10;;;;;;;5.90;3.50;;;;;;;;;;5105852;28;20035;-47
2022/12/26 20:08:36;;;;;;;5.18;3.85;;;;;;;;;;5103501;28;20079;-48
2022/12/26 20:11:06;;;;;;;5.40;3.70;;;;;;;;;;5106428;28;20089;-47
2022/12/26 20:13:33;;;;;;;5.93;3.70;;;;;;;;;;5117840;27;20027;-48
2022/12/26 20:16:03;;;;;;;4.78;3.55;;;;;;;;;;5106628;28;20024;-48
2022/12/26 20:18:30;;;;;;;6.30;4.13;;;;;;;;;;5106381;28;20055;-46
2022/12/26 20:20:56;;;;;;;4.82;3.20;;;;;;;;;;5106210;27;20033;-48